Bookmark and Share
Track history (hours):
 

Os

Last reported at 2014-Apr-17 15:33 UTC. Time now 2014-Apr-17 15:44 UTC.
Position N 62°36' E 006°17'.

Length 64 m.

Type: Passenger vessel. MMSI: 257066700.

NotesDate/timePositionNaut miles runAvg speedWind from/ knotsBaromVisibWave heightAir tempDewpointWater temp
2014-Apr-17 15:33N 62°36' E 006°17'0 0.0
2014-Apr-17 14:33N 62°36' E 006°17'0 0.0
2014-Apr-17 12:33N 62°36' E 006°17'2 1.4
2014-Apr-17 11:25N 62°37' E 006°14'1 0.4
2014-Apr-17 09:08N 62°37' E 006°16'2 3.1
2014-Apr-17 08:33N 62°36' E 006°17'0 0.1
2014-Apr-17 07:33N 62°36' E 006°17'0 0.4
2014-Apr-17 06:32N 62°36' E 006°17'2 2.2
2014-Apr-17 05:31N 62°38' E 006°17'0 0.0
2014-Apr-17 04:26N 62°38' E 006°17'0 0.0
2014-Apr-17 03:29N 62°38' E 006°17'0 0.0
2014-Apr-17 01:33N 62°38' E 006°17'0 0.0
2014-Apr-16 23:32N 62°38' E 006°17'0 0.0
2014-Apr-16 22:29N 62°38' E 006°17'0 0.0
2014-Apr-16 21:27N 62°38' E 006°17'3 2.1
2014-Apr-16 20:09N 62°36' E 006°17'1 1.7
2014-Apr-16 19:27N 62°37' E 006°17'2 1.5
2014-Apr-16 18:28N 62°38' E 006°17'2 2.1
2014-Apr-16 17:32N 62°37' E 006°13'5 5.1
2014-Apr-16 16:33N 62°32' E 006°13'6 6.4
2014-Apr-16 15:33N 62°38' E 006°17'0 0.0
2014-Apr-16 14:33N 62°38' E 006°17'0 0.0
2014-Apr-16 13:25N 62°38' E 006°17'0 0.1
2014-Apr-16 12:33N 62°38' E 006°17'0 0.1
2014-Apr-16 11:33N 62°38' E 006°17'5 5.3
2014-Apr-16 10:32N 62°33' E 006°13'3 3.2
2014-Apr-16 09:34N 62°36' E 006°17'0 0.0
2014-Apr-16 08:32N 62°36' E 006°17'0 0.5
2014-Apr-16 07:33N 62°36' E 006°17'0 0.4
2014-Apr-16 06:32N 62°37' E 006°17'1 0.9
2014-Apr-16 05:33N 62°36' E 006°17'0 0.1
2014-Apr-16 04:33N 62°36' E 006°17'3 2.7
2014-Apr-16 03:33N 62°38' E 006°17'0 0.0
2014-Apr-16 02:32N 62°38' E 006°17'0 0.0
2014-Apr-16 01:32N 62°38' E 006°17'0 0.0
2014-Apr-16 00:32N 62°38' E 006°17'0 0.0
2014-Apr-15 23:31N 62°38' E 006°17'0 0.0
2014-Apr-15 22:30N 62°38' E 006°17'0 0.0
2014-Apr-15 21:32N 62°38' E 006°17'0 0.1
2014-Apr-15 20:29N 62°38' E 006°17'1 1.2
2014-Apr-15 19:27N 62°37' E 006°17'1 0.5
2014-Apr-15 18:18N 62°36' E 006°17'2 2.4
2014-Apr-15 17:33N 62°37' E 006°13'0 0.0
2014-Apr-15 16:33N 62°37' E 006°13'2 1.8
2014-Apr-15 15:28N 62°38' E 006°17'2 0.3
2014-Apr-15 08:31N 62°36' E 006°17'0 0.0
2014-Apr-15 07:34N 62°36' E 006°17'1 0.6
2014-Apr-15 06:33N 62°36' E 006°17'0 0.3
2014-Apr-15 05:34N 62°36' E 006°17'0 0.1
2014-Apr-15 03:34N 62°36' E 006°17'3 2.7
2014-Apr-15 02:34N 62°38' E 006°17'0 0.0
2014-Apr-15 01:31N 62°38' E 006°17'0 0.0
2014-Apr-15 00:33N 62°38' E 006°17'0 0.0
2014-Apr-14 22:34N 62°38' E 006°17'0 0.0
2014-Apr-14 21:31N 62°38' E 006°17'0 0.0
2014-Apr-14 20:34N 62°38' E 006°17'0 0.4
2014-Apr-14 19:33N 62°38' E 006°17'2 0.6
2014-Apr-14 16:33N 62°37' E 006°14'0 0.0
2014-Apr-14 15:33N 62°37' E 006°14'1 0.3
2014-Apr-14 10:32N 62°37' E 006°16'2 1.9
2014-Apr-14 09:29N 62°36' E 006°17'1 0.2
2014-Apr-14 06:33N 62°36' E 006°17'0 0.0
2014-Apr-14 05:33N 62°36' E 006°17'1 0.0
2014-Apr-13 10:31N 62°36' E 006°17'2 1.6
2014-Apr-13 09:12N 62°37' E 006°14'2 3.0
2014-Apr-13 08:33N 62°36' E 006°17'0 0.1
2014-Apr-13 07:33N 62°36' E 006°17'0 0.1
2014-Apr-13 06:33N 62°36' E 006°17'3 2.5
2014-Apr-13 05:33N 62°38' E 006°17'0 0.0
2014-Apr-13 04:30N 62°38' E 006°17'0 0.0
2014-Apr-13 03:33N 62°38' E 006°17'0 0.0
2014-Apr-12 22:24N 62°38' E 006°17'0 0.0
2014-Apr-12 21:29N 62°38' E 006°17'1 0.5
2014-Apr-12 19:33N 62°37' E 006°16'1 0.9
2014-Apr-12 18:31N 62°38' E 006°17'2 2.0
2014-Apr-12 17:33N 62°37' E 006°13'2 2.2
2014-Apr-12 16:33N 62°36' E 006°17'3 2.6
2014-Apr-12 15:32N 62°38' E 006°17'0 0.0
2014-Apr-12 14:31N 62°38' E 006°17'2 1.7
2014-Apr-12 13:32N 62°37' E 006°14'1 1.0
2014-Apr-12 12:30N 62°37' E 006°16'2 0.9
2014-Apr-12 10:33N 62°36' E 006°17'0 0.0
2014-Apr-12 09:33N 62°36' E 006°17'0 0.3
2014-Apr-12 08:32N 62°36' E 006°17'2 2.4
2014-Apr-12 07:30N 62°38' E 006°17'2 2.2
2014-Apr-12 06:33N 62°36' E 006°17'0 0.2
2014-Apr-12 05:33N 62°36' E 006°17'2 1.0
2014-Apr-12 03:17N 62°38' E 006°17'0 0.0
2014-Apr-12 02:31N 62°38' E 006°17'0 0.0
2014-Apr-12 01:32N 62°38' E 006°17'0 0.0
2014-Apr-12 00:20N 62°38' E 006°17'0 0.0
2014-Apr-11 22:15N 62°38' E 006°17'0 0.4
2014-Apr-11 21:29N 62°38' E 006°17'0 0.2
2014-Apr-11 20:30N 62°38' E 006°17'0 0.2
2014-Apr-11 19:33N 62°38' E 006°17'2 1.0
2014-Apr-11 17:33N 62°37' E 006°13'0 0.0
2014-Apr-11 16:29N 62°37' E 006°13'2 2.1
2014-Apr-11 15:34N 62°38' E 006°17'2 1.3
2014-Apr-11 14:22N 62°37' E 006°17'1 1.4
2014-Apr-11 13:33N 62°37' E 006°15'1 0.6
2014-Apr-11 12:32N 62°37' E 006°16'1 0.5
2014-Apr-11 11:13N 62°37' E 006°17'1 2.1
2014-Apr-11 10:33N 62°36' E 006°17'0 0.0
2014-Apr-11 09:33N 62°36' E 006°17'0 0.0
2014-Apr-11 08:34N 62°36' E 006°17'1 0.6
2014-Apr-11 07:33N 62°36' E 006°17'0 0.0
2014-Apr-11 06:31N 62°36' E 006°17'1 0.7
2014-Apr-11 05:33N 62°36' E 006°17'0 0.0
2014-Apr-11 04:33N 62°36' E 006°17'3 2.6
2014-Apr-11 03:31N 62°38' E 006°17'0 0.0
2014-Apr-11 02:13N 62°38' E 006°17'0 0.0
2014-Apr-11 01:25N 62°38' E 006°17'0 0.0
2014-Apr-11 00:29N 62°38' E 006°17'0 0.0
2014-Apr-10 23:31N 62°38' E 006°17'0 0.0
2014-Apr-10 22:32N 62°38' E 006°17'1 0.8
2014-Apr-10 21:24N 62°37' E 006°16'1 0.8
2014-Apr-10 20:32N 62°38' E 006°17'2 1.8
2014-Apr-10 19:23N 62°36' E 006°17'2 2.9
2014-Apr-10 18:33N 62°38' E 006°17'2 1.9
2014-Apr-10 17:32N 62°37' E 006°13'0 0.1
2014-Apr-10 16:33N 62°37' E 006°14'2 1.6
2014-Apr-10 15:16N 62°36' E 006°17'1 0.6
2014-Apr-10 14:22N 62°36' E 006°17'2 2.0
2014-Apr-10 13:25N 62°38' E 006°17'1 0.8
2014-Apr-10 12:33N 62°37' E 006°16'1 0.5
2014-Apr-10 11:13N 62°37' E 006°17'1 2.1
2014-Apr-10 10:33N 62°36' E 006°17'2 1.7
2014-Apr-10 09:17N 62°37' E 006°14'0 0.1
2014-Apr-10 08:28N 62°37' E 006°14'2 1.7
2014-Apr-10 07:26N 62°38' E 006°17'2 2.0
2014-Apr-10 06:32N 62°36' E 006°17'1 0.7
2014-Apr-10 05:33N 62°36' E 006°17'0 0.1
2014-Apr-10 04:33N 62°36' E 006°17'3 2.5
2014-Apr-10 03:28N 62°38' E 006°17'0 0.0
2014-Apr-10 02:33N 62°38' E 006°17'0 0.0
2014-Apr-10 01:33N 62°38' E 006°17'0 0.0
2014-Apr-10 00:33N 62°38' E 006°17'0 0.0
2014-Apr-09 23:33N 62°38' E 006°17'0 0.0
2014-Apr-09 22:04N 62°38' E 006°17'0 0.0
2014-Apr-09 21:33N 62°38' E 006°17'0 0.1
2014-Apr-09 20:32N 62°38' E 006°17'2 1.5
2014-Apr-09 19:25N 62°36' E 006°17'1 0.7
2014-Apr-09 18:09N 62°36' E 006°17'2 3.6
2014-Apr-09 17:33N 62°37' E 006°14'2 2.1
2014-Apr-09 16:33N 62°36' E 006°17'3 2.7
2014-Apr-09 15:33N 62°38' E 006°17'1 1.0
2014-Apr-09 14:24N 62°37' E 006°17'1 1.2
2014-Apr-09 13:26N 62°38' E 006°17'0 0.2
2014-Apr-09 12:28N 62°38' E 006°17'0 0.3
2014-Apr-09 11:31N 62°38' E 006°17'4 4.1
2014-Apr-09 10:32N 62°34' E 006°13'3 2.3
2014-Apr-09 09:14N 62°37' E 006°14'2 2.9
2014-Apr-09 08:33N 62°36' E 006°17'0 0.1
2014-Apr-09 07:33N 62°36' E 006°17'3 2.0
2014-Apr-09 06:17N 62°38' E 006°17'1 1.0
2014-Apr-09 05:10N 62°37' E 006°15'2 3.1
2014-Apr-09 04:33N 62°36' E 006°17'3 2.4
2014-Apr-09 03:27N 62°38' E 006°17'0 0.0
2014-Apr-09 02:33N 62°38' E 006°17'0 0.0
2014-Apr-09 01:29N 62°38' E 006°17'0 0.0
2014-Apr-09 00:33N 62°38' E 006°17'0 0.0
2014-Apr-08 23:28N 62°38' E 006°17'0 0.0
2014-Apr-08 22:24N 62°38' E 006°17'0 0.0
2014-Apr-08 21:31N 62°38' E 006°17'1 0.9
2014-Apr-08 20:33N 62°37' E 006°16'1 1.1
2014-Apr-08 19:24N 62°36' E 006°17'2 2.3
2014-Apr-08 18:31N 62°38' E 006°17'2 1.9
2014-Apr-08 17:33N 62°37' E 006°14'0 0.1
2014-Apr-08 16:33N 62°37' E 006°13'2 1.4
2014-Apr-08 15:22N 62°37' E 006°17'2 1.8
2014-Apr-08 14:30N 62°38' E 006°17'1 1.6
2014-Apr-08 13:33N 62°37' E 006°14'1 0.9
2014-Apr-08 12:33N 62°37' E 006°16'0 0.4
2014-Apr-08 11:30N 62°38' E 006°17'2 2.4
2014-Apr-08 10:33N 62°36' E 006°17'0 0.0
2014-Apr-08 09:33N 62°36' E 006°17'0 0.0
2014-Apr-08 08:33N 62°36' E 006°17'3 2.2
2014-Apr-08 07:20N 62°38' E 006°17'2 3.1
2014-Apr-08 06:33N 62°36' E 006°17'0 0.2
2014-Apr-08 05:34N 62°36' E 006°17'0 0.0
2014-Apr-08 04:33N 62°36' E 006°17'3 2.6
2014-Apr-08 03:32N 62°38' E 006°17'0 0.0
2014-Apr-08 02:29N 62°38' E 006°17'0 0.0
2014-Apr-08 01:31N 62°38' E 006°17'0 0.0
2014-Apr-08 00:33N 62°38' E 006°17'0 0.0
2014-Apr-07 22:29N 62°38' E 006°17'2 1.5
2014-Apr-07 21:16N 62°37' E 006°14'2 2.3
2014-Apr-07 20:29N 62°38' E 006°17'2 1.6
2014-Apr-07 19:26N 62°36' E 006°17'2 0.9
2014-Apr-07 17:33N 62°37' E 006°14'0 0.0
2014-Apr-07 16:34N 62°37' E 006°13'  

Dump ship's entire track history

sailing weather and tide predictions

Os — LHFA — position and weather